Time;durP1;ratioP1;P1;durP2;ratioP2;P2;SDS_P1;SDS_P2;PMS_P1;PMS_P2;Temp;Humidity;BMP_temperature;BMP_pressure;BME280_temperature;BME280_humidity;BME280_pressure;Samples;Min_cycle;Max_cycle;Signal;HPM_P1;HPM_P2
2023/04/26 00:02:12;;;;;;;6.85;0.80;;;2.60;99.90;;;;;;5045102;28;20088;-73
2023/04/26 00:04:38;;;;;;;6.85;1.20;;;2.50;99.90;;;;;;5040965;28;20046;-73
2023/04/26 00:07:05;;;;;;;6.47;0.90;;;2.40;99.90;;;;;;5045758;28;20039;-73
2023/04/26 00:09:31;;;;;;;3.95;1.20;;;2.30;99.90;;;;;;5026912;28;20110;-73
2023/04/26 00:11:57;;;;;;;7.40;1.40;;;2.20;99.90;;;;;;5046219;28;20040;-73
2023/04/26 00:14:23;;;;;;;4.93;1.20;;;2.20;99.90;;;;;;5047560;28;20048;-73
2023/04/26 00:16:48;;;;;;;8.07;1.40;;;2.20;99.90;;;;;;5047467;28;20504;-73
2023/04/26 00:19:14;;;;;;;7.43;1.47;;;2.20;99.90;;;;;;5033351;28;20087;-73
2023/04/26 00:21:40;;;;;;;6.97;1.45;;;2.20;99.90;;;;;;5040467;28;20091;-73
2023/04/26 00:24:07;;;;;;;4.90;1.20;;;2.20;99.90;;;;;;5031248;28;20079;-73
2023/04/26 00:26:33;;;;;;;7.15;1.20;;;2.20;99.90;;;;;;5020496;28;20536;-73
2023/04/26 00:28:59;;;;;;;6.03;1.20;;;2.30;99.90;;;;;;5024653;28;20075;-73
2023/04/26 00:31:25;;;;;;;7.07;1.30;;;2.30;99.90;;;;;;5030528;28;20041;-73
2023/04/26 00:33:51;;;;;;;9.37;1.60;;;2.40;99.90;;;;;;5045959;28;20087;-73
2023/04/26 00:36:18;;;;;;;4.90;1.50;;;2.40;99.90;;;;;;5013549;28;20103;-73
2023/04/26 00:38:47;;;;;;;6.10;1.70;;;2.50;99.90;;;;;;5014702;28;20049;-73
2023/04/26 00:41:13;;;;;;;4.50;1.27;;;2.70;99.90;;;;;;5026868;28;20079;-73
2023/04/26 00:43:39;;;;;;;5.93;1.60;;;2.80;99.90;;;;;;5022232;28;20513;-73
2023/04/26 00:46:08;;;;;;;4.43;1.45;;;2.90;99.90;;;;;;5062256;28;20358;-72
2023/04/26 00:48:36;;;;;;;9.50;1.70;;;2.90;99.90;;;;;;5028295;28;20033;-73
2023/04/26 00:51:02;;;;;;;7.70;2.38;;;2.90;99.90;;;;;;5025713;28;20110;-73
2023/04/26 00:53:30;;;;;;;8.35;1.70;;;2.90;99.90;;;;;;5048515;28;20041;-73
2023/04/26 00:55:56;;;;;;;8.68;1.70;;;2.90;99.90;;;;;;5048378;28;20048;-73
2023/04/26 00:58:22;;;;;;;7.90;1.75;;;2.90;99.90;;;;;;5026183;28;20040;-73
2023/04/26 01:00:49;;;;;;;5.23;1.60;;;2.90;99.90;;;;;;5042408;28;20041;-73
2023/04/26 01:03:15;;;;;;;7.10;1.73;;;2.90;99.90;;;;;;5025865;28;20083;-73
2023/04/26 01:05:41;;;;;;;4.65;1.45;;;3.00;99.90;;;;;;5020810;28;20051;-73
2023/04/26 01:08:07;;;;;;;10.60;2.30;;;3.00;99.90;;;;;;5046754;28;20086;-73
2023/04/26 01:10:34;;;;;;;6.17;1.93;;;3.00;99.90;;;;;;5046949;28;20513;-73
2023/04/26 01:13:02;;;;;;;8.80;1.73;;;2.90;99.90;;;;;;5042490;28;20048;-73
2023/04/26 01:15:29;;;;;;;8.95;2.38;;;2.90;99.90;;;;;;5047778;28;20047;-73
2023/04/26 01:17:56;;;;;;;7.65;1.48;;;2.90;99.90;;;;;;5044440;28;20052;-72
2023/04/26 01:20:22;;;;;;;5.72;1.77;;;2.80;99.90;;;;;;5020425;28;20401;-72
2023/04/26 01:22:48;;;;;;;6.05;2.00;;;2.70;99.90;;;;;;5026910;28;20042;-72
2023/04/26 01:25:16;;;;;;;5.43;1.80;;;2.60;99.90;;;;;;5027511;28;20041;-72
2023/04/26 01:27:41;;;;;;;5.25;1.60;;;2.50;99.90;;;;;;5027254;28;20117;-72
2023/04/26 01:30:08;;;;;;;5.63;1.80;;;2.40;99.90;;;;;;5036446;28;20573;-72
2023/04/26 01:32:34;;;;;;;7.38;1.83;;;2.30;99.90;;;;;;5033209;28;20055;-71
2023/04/26 01:35:00;;;;;;;4.28;1.50;;;2.20;99.90;;;;;;5035565;28;20045;-71
2023/04/26 01:37:26;;;;;;;4.67;1.20;;;2.20;99.90;;;;;;5023846;28;20045;-71
2023/04/26 01:39:52;;;;;;;4.10;1.40;;;2.10;99.90;;;;;;5019750;28;20291;-71
2023/04/26 01:42:17;;;;;;;5.47;1.43;;;2.00;99.90;;;;;;5028124;28;20050;-71
2023/04/26 01:44:43;;;;;;;5.20;1.43;;;1.90;99.90;;;;;;5027248;28;20052;-71
2023/04/26 01:47:09;;;;;;;5.87;1.47;;;1.90;99.90;;;;;;5045185;28;20382;-71
2023/04/26 01:49:35;;;;;;;6.10;1.30;;;1.80;99.90;;;;;;5038219;28;20044;-71
2023/04/26 01:52:01;;;;;;;7.18;1.42;;;1.70;99.90;;;;;;5024691;28;20405;-71
2023/04/26 01:54:27;;;;;;;15.82;1.77;;;1.60;99.90;;;;;;5039426;28;20037;-71
2023/04/26 01:56:52;;;;;;;5.83;1.30;;;1.50;99.90;;;;;;5049765;28;20045;-72
2023/04/26 01:59:18;;;;;;;4.00;1.20;;;1.50;99.90;;;;;;5026952;28;20048;-71
2023/04/26 02:01:44;;;;;;;5.90;1.77;;;1.40;99.90;;;;;;5047747;28;20041;-71
2023/04/26 02:04:09;;;;;;;3.80;1.07;;;1.30;99.90;;;;;;5046317;28;20049;-71
2023/04/26 02:06:36;;;;;;;3.70;1.30;;;1.30;99.90;;;;;;5045837;28;20144;-71
2023/04/26 02:09:03;;;;;;;6.18;1.90;;;1.20;99.90;;;;;;5029255;28;20116;-71
2023/04/26 02:11:28;;;;;;;5.45;1.40;;;1.20;99.90;;;;;;5046757;28;20056;-72
2023/04/26 02:13:54;;;;;;;7.17;1.33;;;1.10;99.90;;;;;;5044444;28;20052;-72
2023/04/26 02:16:20;;;;;;;6.43;1.87;;;1.10;99.90;;;;;;5046165;28;20469;-72
2023/04/26 02:18:48;;;;;;;6.00;1.40;;;1.10;99.90;;;;;;5027766;28;20029;-72
2023/04/26 02:21:17;;;;;;;4.82;1.15;;;1.10;99.90;;;;;;5030699;28;20102;-72
2023/04/26 02:23:43;;;;;;;5.60;1.50;;;1.00;99.90;;;;;;5019649;28;20049;-72
2023/04/26 02:26:08;;;;;;;6.40;2.25;;;1.00;99.90;;;;;;5038277;28;20095;-71
2023/04/26 02:28:34;;;;;;;4.13;2.00;;;1.00;99.90;;;;;;5027267;28;20032;-71
2023/04/26 02:31:01;;;;;;;6.93;2.40;;;1.00;99.90;;;;;;5040530;28;20055;-71
2023/04/26 02:33:27;;;;;;;7.53;1.40;;;1.00;99.90;;;;;;5025079;28;20037;-71
2023/04/26 02:35:53;;;;;;;4.77;1.77;;;1.00;99.90;;;;;;5040343;28;20036;-71
2023/04/26 02:38:18;;;;;;;5.93;1.70;;;0.90;99.90;;;;;;5020395;28;20059;-71
2023/04/26 02:40:44;;;;;;;3.57;1.50;;;0.80;99.90;;;;;;5040231;28;20584;-71
2023/04/26 02:43:10;;;;;;;4.73;1.43;;;0.70;99.90;;;;;;5042108;28;20129;-71
2023/04/26 02:45:43;;;;;;;10.93;1.95;;;0.70;99.90;;;;;;5018206;28;20048;-71
2023/04/26 02:48:08;;;;;;;4.93;1.50;;;0.60;99.90;;;;;;5041033;28;20051;-71
2023/04/26 02:50:35;;;;;;;7.90;1.70;;;0.60;99.90;;;;;;5036720;28;20112;-71
2023/04/26 02:53:02;;;;;;;6.60;1.75;;;0.50;99.90;;;;;;5016634;28;20030;-71
2023/04/26 02:55:28;;;;;;;8.00;1.80;;;0.60;99.90;;;;;;5033189;28;20045;-71
2023/04/26 02:57:53;;;;;;;7.23;2.53;;;0.70;99.90;;;;;;5044741;28;20041;-71
2023/04/26 03:00:19;;;;;;;7.77;1.83;;;0.80;99.90;;;;;;5030103;28;20298;-71
2023/04/26 03:02:45;;;;;;;5.33;1.63;;;0.80;99.90;;;;;;5025894;28;20064;-71
2023/04/26 03:05:12;;;;;;;7.50;1.52;;;0.80;99.90;;;;;;5034574;28;20489;-71
2023/04/26 03:07:38;;;;;;;5.93;1.67;;;0.80;99.90;;;;;;5042344;28;20045;-71
2023/04/26 03:10:04;;;;;;;5.53;1.97;;;0.70;99.90;;;;;;5025476;28;20048;-71
2023/04/26 03:12:30;;;;;;;7.13;1.58;;;0.70;99.90;;;;;;5020766;28;20116;-71
2023/04/26 03:14:56;;;;;;;5.60;1.60;;;0.60;99.90;;;;;;5031084;28;20120;-71
2023/04/26 03:17:21;;;;;;;3.47;1.70;;;0.60;99.90;;;;;;5020632;28;20392;-71
2023/04/26 03:19:47;;;;;;;5.93;2.47;;;0.50;99.90;;;;;;5027249;28;20037;-71
2023/04/26 03:22:15;;;;;;;5.23;1.50;;;0.50;99.90;;;;;;5025060;28;20045;-71
2023/04/26 03:24:42;;;;;;;6.45;1.98;;;0.50;99.90;;;;;;5035392;28;20056;-71
2023/04/26 03:27:08;;;;;;;13.00;2.42;;;0.40;99.90;;;;;;5037212;28;20405;-71
2023/04/26 03:29:33;;;;;;;8.23;2.10;;;0.40;99.90;;;;;;5039836;28;20043;-71
2023/04/26 03:31:59;;;;;;;9.83;1.83;;;0.30;99.90;;;;;;5031396;28;20067;-72
2023/04/26 03:34:26;;;;;;;6.47;1.67;;;0.30;99.90;;;;;;5042435;28;20037;-72
2023/04/26 03:36:52;;;;;;;4.32;1.35;;;0.30;99.90;;;;;;5037243;28;20062;-72
2023/04/26 03:39:18;;;;;;;4.87;1.60;;;0.30;99.90;;;;;;5029834;28;20056;-72
2023/04/26 03:41:43;;;;;;;4.83;1.70;;;0.20;99.90;;;;;;5047026;28;20059;-72
2023/04/26 03:44:09;;;;;;;6.77;1.57;;;0.30;99.90;;;;;;5041657;28;20810;-72
2023/04/26 03:46:35;;;;;;;3.77;2.00;;;0.30;99.90;;;;;;5042286;28;20041;-72
2023/04/26 03:49:00;;;;;;;7.87;1.47;;;0.40;99.90;;;;;;5046526;28;20041;-72
2023/04/26 03:51:27;;;;;;;7.67;1.90;;;0.50;99.90;;;;;;5029308;28;20621;-71
2023/04/26 03:53:53;;;;;;;6.70;2.08;;;0.60;99.90;;;;;;5040634;28;20037;-71
2023/04/26 03:56:19;;;;;;;6.88;2.50;;;0.70;99.90;;;;;;5026468;28;20037;-71
2023/04/26 03:58:45;;;;;;;9.33;1.67;;;0.80;99.90;;;;;;5042408;28;20052;-71
2023/04/26 04:01:11;;;;;;;6.15;1.60;;;1.00;99.90;;;;;;5021424;28;20102;-72
2023/04/26 04:03:37;;;;;;;5.70;1.90;;;1.10;99.90;;;;;;5032341;28;20037;-72
2023/04/26 04:06:03;;;;;;;12.03;2.70;;;1.20;99.90;;;;;;5021333;28;20404;-72
2023/04/26 04:08:28;;;;;;;5.75;1.90;;;1.30;99.90;;;;;;5017687;28;20033;-72
2023/04/26 04:10:55;;;;;;;6.37;2.10;;;1.40;99.90;;;;;;5026123;28;20051;-72
2023/04/26 04:13:21;;;;;;;5.78;2.10;;;1.40;99.90;;;;;;5036518;28;20041;-72
2023/04/26 04:15:47;;;;;;;8.83;2.03;;;1.40;99.90;;;;;;5035996;28;20045;-72
2023/04/26 04:18:13;;;;;;;7.47;1.80;;;1.50;99.90;;;;;;5039386;28;20041;-72
2023/04/26 04:20:40;;;;;;;8.03;1.77;;;1.50;99.90;;;;;;5033712;28;20029;-72
2023/04/26 04:23:06;;;;;;;6.53;1.63;;;1.50;99.90;;;;;;5039534;28;20130;-72
2023/04/26 04:25:33;;;;;;;5.72;2.00;;;1.50;99.90;;;;;;5017482;28;20132;-72
2023/04/26 04:28:00;;;;;;;5.88;1.70;;;1.50;99.90;;;;;;5015830;28;20038;-72
2023/04/26 04:30:30;;;;;;;4.30;1.70;;;1.50;99.90;;;;;;5048567;28;20261;-72
2023/04/26 04:32:58;;;;;;;5.50;1.92;;;1.50;99.90;;;;;;5027782;28;20041;-72
2023/04/26 04:35:29;;;;;;;7.93;2.13;;;1.60;99.90;;;;;;5021858;28;20046;-71
2023/04/26 04:37:57;;;;;;;4.65;1.80;;;1.70;99.90;;;;;;5042319;28;20164;-72
2023/04/26 04:40:24;;;;;;;4.60;1.80;;;1.80;99.90;;;;;;5041160;28;20511;-72
2023/04/26 04:42:50;;;;;;;4.50;1.70;;;1.80;99.90;;;;;;5020405;28;20457;-72
2023/04/26 04:45:16;;;;;;;3.77;1.70;;;1.90;99.90;;;;;;5026158;28;20036;-72
2023/04/26 04:47:45;;;;;;;4.65;1.80;;;1.90;99.90;;;;;;5048954;28;20051;-72
2023/04/26 04:50:11;;;;;;;4.22;1.98;;;1.90;99.90;;;;;;5021507;28;20053;-72
2023/04/26 04:52:36;;;;;;;5.63;1.97;;;1.90;99.90;;;;;;5038325;28;20378;-72
2023/04/26 04:55:03;;;;;;;4.43;1.93;;;1.90;99.90;;;;;;5032344;28;20028;-72
2023/04/26 04:57:30;;;;;;;4.25;1.70;;;1.90;99.90;;;;;;5034031;28;20556;-72
2023/04/26 04:59:56;;;;;;;4.85;1.77;;;1.90;99.90;;;;;;5050586;28;20048;-72
2023/04/26 05:02:22;;;;;;;8.07;2.07;;;1.90;99.90;;;;;;5033756;28;20492;-72
2023/04/26 05:04:47;;;;;;;6.90;1.90;;;1.90;99.90;;;;;;5046717;28;20049;-72
2023/04/26 05:07:14;;;;;;;5.23;1.80;;;1.90;99.90;;;;;;5024439;28;20084;-72
2023/04/26 05:09:41;;;;;;;5.38;1.90;;;1.90;99.90;;;;;;5042951;28;20401;-72
2023/04/26 05:12:07;;;;;;;5.05;2.00;;;1.90;99.90;;;;;;5020638;28;20482;-72
2023/04/26 05:14:33;;;;;;;5.80;1.90;;;1.90;99.90;;;;;;5041457;28;20045;-72
2023/04/26 05:16:59;;;;;;;5.47;2.23;;;1.90;99.90;;;;;;5040260;28;20082;-72
2023/04/26 05:19:24;;;;;;;5.50;1.90;;;1.90;99.90;;;;;;5024259;28;20041;-72
2023/04/26 05:21:51;;;;;;;9.60;2.37;;;2.00;99.90;;;;;;5038451;28;20037;-72
2023/04/26 05:24:17;;;;;;;7.88;2.20;;;2.20;99.90;;;;;;5040051;28;20397;-72
2023/04/26 05:26:43;;;;;;;7.07;1.50;;;2.30;99.90;;;;;;5046881;28;20044;-72
2023/04/26 05:29:09;;;;;;;5.90;2.00;;;2.40;99.90;;;;;;5030677;28;20042;-72
2023/04/26 05:31:34;;;;;;;4.30;1.80;;;2.60;99.90;;;;;;5044179;28;20101;-72
2023/04/26 05:34:00;;;;;;;6.97;1.67;;;2.70;99.90;;;;;;5040635;28;20556;-72
2023/04/26 05:36:26;;;;;;;8.00;1.77;;;2.90;99.90;;;;;;5044276;28;20189;-72
2023/04/26 05:38:52;;;;;;;7.77;1.83;;;3.00;99.90;;;;;;5048062;28;20061;-72
2023/04/26 05:41:17;;;;;;;7.03;1.80;;;3.20;99.90;;;;;;5045462;28;20116;-72
2023/04/26 05:43:43;;;;;;;5.93;1.70;;;3.40;99.90;;;;;;5028876;28;20053;-72
2023/04/26 05:46:09;;;;;;;2.93;1.20;;;3.60;99.90;;;;;;5048004;28;20519;-72
2023/04/26 05:48:34;;;;;;;8.83;1.80;;;3.80;99.90;;;;;;5024269;28;20045;-72
2023/04/26 05:51:01;;;;;;;6.30;1.73;;;3.90;99.90;;;;;;5024404;28;20064;-72
2023/04/26 05:53:27;;;;;;;7.85;1.85;;;4.00;99.90;;;;;;5038248;28;20080;-72
2023/04/26 05:55:52;;;;;;;7.00;1.97;;;4.20;99.90;;;;;;5028247;28;20079;-72
2023/04/26 05:58:18;;;;;;;6.97;1.87;;;4.40;99.90;;;;;;5029935;28;20041;-72
2023/04/26 06:00:44;;;;;;;7.00;1.67;;;4.50;99.90;;;;;;5038475;28;20153;-72
2023/04/26 06:03:09;;;;;;;7.10;1.60;;;4.60;99.90;;;;;;5047408;28;20041;-72
2023/04/26 06:05:40;;;;;;;5.03;1.53;;;4.70;99.90;;;;;;5022676;28;20052;-72
2023/04/26 06:08:06;;;;;;;4.00;1.38;;;4.90;99.90;;;;;;5039073;28;20049;-72
2023/04/26 06:10:31;;;;;;;4.60;1.50;;;5.00;99.90;;;;;;5030606;28;20568;-72
2023/04/26 06:12:57;;;;;;;4.33;1.30;;;5.20;99.90;;;;;;5027146;28;20120;-72
2023/04/26 06:15:23;;;;;;;3.63;1.10;;;5.40;99.90;;;;;;5029837;28;20092;-72
2023/04/26 06:17:49;;;;;;;5.20;1.20;;;5.70;99.90;;;;;;5027299;28;20510;-72
2023/04/26 06:20:15;;;;;;;3.37;0.90;;;5.90;99.90;;;;;;5026793;28;20045;-72
2023/04/26 06:22:40;;;;;;;4.63;0.80;;;6.20;99.90;;;;;;5024890;28;20040;-72
2023/04/26 06:25:07;;;;;;;7.37;1.70;;;6.40;99.90;;;;;;5025079;28;20670;-72
2023/04/26 06:27:32;;;;;;;5.43;1.10;;;6.50;99.90;;;;;;5030143;28;20037;-72
2023/04/26 06:29:58;;;;;;;6.80;1.10;;;6.60;99.90;;;;;;5031148;28;20029;-72
2023/04/26 06:32:24;;;;;;;5.90;1.30;;;6.60;99.90;;;;;;5022451;28;20047;-72
2023/04/26 06:34:50;;;;;;;2.67;1.10;;;6.70;99.90;;;;;;5038911;28;20033;-72
2023/04/26 06:37:16;;;;;;;6.17;0.80;;;6.70;99.90;;;;;;4994879;28;1149778;-72
2023/04/26 06:39:41;;;;;;;5.07;1.20;;;6.70;99.90;;;;;;5022651;28;20075;-72
2023/04/26 06:42:07;;;;;;;5.27;1.20;;;6.90;99.90;;;;;;5026164;28;20080;-73
2023/04/26 06:44:33;;;;;;;4.57;1.07;;;7.00;99.90;;;;;;5043508;28;20032;-74
2023/04/26 06:46:59;;;;;;;4.33;0.90;;;7.20;99.90;;;;;;5023582;28;21056;-74
2023/04/26 06:49:25;;;;;;;2.57;0.70;;;7.20;99.90;;;;;;5027901;28;20037;-73
2023/04/26 06:51:51;;;;;;;3.05;1.10;;;7.20;99.90;;;;;;5046573;28;20068;-74
2023/04/26 06:54:18;;;;;;;4.53;1.00;;;7.20;99.90;;;;;;5044418;28;20127;-74
2023/04/26 06:56:44;;;;;;;8.43;1.45;;;7.20;99.90;;;;;;5028998;28;20042;-74
2023/04/26 06:59:09;;;;;;;5.75;1.40;;;7.30;99.90;;;;;;5029734;28;20064;-74
2023/04/26 07:01:35;;;;;;;6.63;1.13;;;7.40;99.90;;;;;;5027891;28;20033;-73
2023/04/26 07:04:03;;;;;;;8.50;1.17;;;7.50;99.90;;;;;;5029013;28;20041;-74
2023/04/26 07:06:30;;;;;;;3.65;1.00;;;7.50;99.90;;;;;;5029805;28;20036;-74
2023/04/26 07:08:58;;;;;;;6.70;1.60;;;7.40;99.90;;;;;;5032178;28;20048;-75
2023/04/26 07:11:24;;;;;;;2.95;1.10;;;7.40;99.90;;;;;;5027211;28;20523;-73
2023/04/26 07:13:50;;;;;;;4.70;1.00;;;7.40;99.90;;;;;;5031271;28;20117;-74
2023/04/26 07:16:16;;;;;;;3.80;0.87;;;7.40;99.90;;;;;;5028259;28;20036;-73
2023/04/26 07:18:42;;;;;;;5.97;1.20;;;7.40;99.90;;;;;;5034725;28;20041;-73
2023/04/26 07:21:08;;;;;;;4.10;1.13;;;7.50;99.90;;;;;;5032674;28;20044;-76
2023/04/26 07:23:34;;;;;;;4.77;1.30;;;7.50;99.90;;;;;;5032290;28;20056;-74
2023/04/26 07:26:00;;;;;;;6.60;1.30;;;7.60;99.90;;;;;;5050260;28;20702;-74
2023/04/26 07:28:26;;;;;;;4.72;1.10;;;7.70;99.90;;;;;;5034015;28;20094;-74
2023/04/26 07:30:53;;;;;;;5.50;1.38;;;7.80;99.90;;;;;;5027257;28;20037;-74
2023/04/26 07:33:18;;;;;;;3.55;0.90;;;7.80;99.90;;;;;;5045637;28;20176;-74
2023/04/26 07:35:44;;;;;;;6.20;1.20;;;7.80;99.90;;;;;;5022743;28;20129;-75
2023/04/26 07:38:13;;;;;;;4.47;1.10;;;7.90;99.90;;;;;;5050883;28;20056;-75
2023/04/26 07:40:39;;;;;;;8.55;1.58;;;7.90;99.90;;;;;;5023881;28;20126;-74
2023/04/26 07:43:04;;;;;;;4.77;1.60;;;8.10;99.90;;;;;;5022439;28;20501;-74
2023/04/26 07:45:31;;;;;;;5.63;1.40;;;8.20;99.90;;;;;;5025878;28;20341;-74
2023/04/26 07:47:57;;;;;;;5.25;0.85;;;8.30;99.90;;;;;;5033007;28;20174;-74
2023/04/26 07:50:23;;;;;;;7.13;1.07;;;8.30;99.20;;;;;;5027121;28;20548;-73
2023/04/26 07:52:50;;;;;;;4.25;1.30;;;8.30;99.90;;;;;;5045920;28;20068;-74
2023/04/26 07:55:15;;;;;;;7.22;1.30;;;8.50;99.90;;;;;;5046436;28;20040;-73
2023/04/26 07:57:41;;;;;;;4.67;1.00;;;8.50;99.00;;;;;;5043164;28;20037;-73
2023/04/26 08:00:09;;;;;;;6.20;1.38;;;8.60;98.40;;;;;;5028080;28;20520;-73
2023/04/26 08:02:35;;;;;;;8.90;1.55;;;8.60;99.90;;;;;;5028293;28;20516;-73
2023/04/26 08:05:01;;;;;;;4.07;0.90;;;8.60;99.90;;;;;;5022838;28;20130;-73
2023/04/26 08:07:26;;;;;;;5.20;1.00;;;8.70;99.90;;;;;;5041618;28;20077;-73
2023/04/26 08:09:52;;;;;;;4.80;1.63;;;8.60;96.30;;;;;;5043984;28;20076;-73
2023/04/26 08:12:18;;;;;;;3.97;0.70;;;8.40;93.40;;;;;;5026515;28;20438;-73
2023/04/26 08:14:44;;;;;;;5.43;1.07;;;8.20;82.20;;;;;;5035282;28;20065;-73
2023/04/26 08:17:10;;;;;;;4.73;1.17;;;8.20;81.80;;;;;;5026930;28;20049;-73
2023/04/26 08:19:36;;;;;;;6.00;0.90;;;8.20;78.70;;;;;;5045619;28;20049;-73
2023/04/26 08:22:02;;;;;;;4.85;1.10;;;8.30;75.30;;;;;;5029328;28;20124;-73
2023/04/26 08:24:28;;;;;;;4.72;0.80;;;8.50;76.10;;;;;;5045117;28;20405;-73
2023/04/26 08:26:54;;;;;;;5.33;0.93;;;8.50;76.00;;;;;;5046963;28;20075;-73
2023/04/26 08:29:22;;;;;;;4.20;1.13;;;8.60;76.70;;;;;;5028559;28;20072;-73
2023/04/26 08:31:47;;;;;;;6.05;1.10;;;8.60;77.80;;;;;;5028219;28;20119;-73
2023/04/26 08:34:13;;;;;;;3.87;1.07;;;8.80;79.60;;;;;;5023115;28;20120;-73
2023/04/26 08:36:43;;;;;;;4.10;1.00;;;8.80;78.60;;;;;;5025121;28;20053;-73
2023/04/26 08:39:08;;;;;;;7.43;1.70;;;8.70;79.20;;;;;;5029166;28;20072;-73
2023/04/26 08:41:51;;;;;;;5.80;1.63;;;8.60;81.60;;;;;;5041401;28;20525;-73
2023/04/26 08:44:22;;;;;;;5.68;1.23;;;8.30;84.00;;;;;;5021719;28;20123;-73
2023/04/26 08:46:59;;;;;;;3.17;1.30;;;8.00;86.70;;;;;;5018304;28;20063;-73
2023/04/26 08:49:43;;;;;;;5.57;1.60;;;7.70;88.40;;;;;;5026277;28;20091;-73
2023/04/26 08:52:11;;;;;;;3.60;1.30;;;7.40;90.10;;;;;;5044762;28;20490;-73
2023/04/26 08:54:38;;;;;;;4.63;1.50;;;7.30;92.50;;;;;;5023511;28;20501;-73
2023/04/26 08:57:06;;;;;;;7.95;1.73;;;7.20;91.50;;;;;;5021570;28;20432;-73
2023/04/26 08:59:37;;;;;;;7.20;1.58;;;7.20;91.80;;;;;;5038354;28;20041;-73
2023/04/26 09:02:06;;;;;;;3.65;1.40;;;7.30;91.70;;;;;;5014600;28;20048;-73
2023/04/26 09:04:32;;;;;;;7.30;1.80;;;7.40;91.00;;;;;;5035319;28;20075;-73
2023/04/26 09:07:03;;;;;;;5.63;1.77;;;7.60;85.00;;;;;;5018053;28;20498;-73
2023/04/26 09:09:37;;;;;;;5.00;1.50;;;7.80;83.10;;;;;;5030041;28;20064;-73
2023/04/26 09:12:03;;;;;;;8.32;1.63;;;8.00;82.60;;;;;;5026868;28;20381;-73
2023/04/26 09:14:30;;;;;;;4.43;1.50;;;8.20;81.30;;;;;;5041798;28;20038;-73
2023/04/26 09:16:56;;;;;;;5.10;1.58;;;8.40;80.80;;;;;;5026049;28;20279;-73
2023/04/26 09:19:39;;;;;;;7.03;1.85;;;8.60;75.60;;;;;;5039765;28;20136;-73
2023/04/26 09:22:05;;;;;;;7.07;1.60;;;8.80;75.30;;;;;;5044841;28;20064;-73
2023/04/26 09:24:53;;;;;;;7.38;1.60;;;9.00;74.80;;;;;;5041054;28;20504;-73
2023/04/26 09:27:20;;;;;;;8.30;1.88;;;9.20;72.30;;;;;;5025857;28;20033;-73
2023/04/26 09:30:09;;;;;;;5.38;1.20;;;9.40;72.10;;;;;;5023329;28;20048;-73
2023/04/26 09:33:05;;;;;;;7.20;1.58;;;9.60;70.30;;;;;;5043721;28;20094;-73
2023/04/26 09:35:41;;;;;;;3.90;1.50;;;9.70;70.20;;;;;;5022029;28;20034;-73
2023/04/26 09:38:17;;;;;;;7.45;1.50;;;9.70;70.50;;;;;;5061989;28;20181;-73
2023/04/26 09:40:48;;;;;;;7.15;1.40;;;9.80;67.90;;;;;;5043506;28;20068;-73
2023/04/26 09:43:18;;;;;;;6.32;1.50;;;9.80;68.70;;;;;;5045281;28;20399;-73
2023/04/26 09:45:53;;;;;;;6.53;1.48;;;9.80;67.50;;;;;;5028945;28;20535;-73
2023/04/26 09:48:30;;;;;;;8.50;2.00;;;9.60;65.30;;;;;;5032000;28;20033;-73
2023/04/26 09:51:06;;;;;;;6.68;2.05;;;9.50;68.00;;;;;;5025803;28;20041;-73
2023/04/26 09:53:33;;;;;;;10.82;1.60;;;9.30;67.70;;;;;;5046908;28;20045;-73
2023/04/26 09:56:09;;;;;;;6.60;1.67;;;9.10;68.60;;;;;;5029796;28;20032;-73
2023/04/26 09:59:01;;;;;;;9.07;1.88;;;9.00;69.20;;;;;;5044846;28;20396;-73
2023/04/26 10:01:28;;;;;;;6.55;1.50;;;8.80;68.10;;;;;;5041345;28;20041;-73
2023/04/26 10:03:56;;;;;;;7.05;1.27;;;8.60;69.70;;;;;;5022120;28;20049;-73
2023/04/26 10:06:23;;;;;;;4.68;1.23;;;8.50;69.30;;;;;;5023996;28;20045;-74
2023/04/26 10:08:49;;;;;;;3.90;1.35;;;8.40;71.60;;;;;;5030235;28;20242;-73
2023/04/26 10:11:16;;;;;;;4.80;1.50;;;8.50;71.10;;;;;;5026349;28;20033;-73
2023/04/26 10:13:43;;;;;;;5.22;1.67;;;8.50;70.70;;;;;;5047992;28;20124;-73
2023/04/26 10:16:09;;;;;;;7.65;1.95;;;8.70;70.40;;;;;;5021300;28;20043;-73
2023/04/26 10:18:35;;;;;;;6.80;1.60;;;8.90;71.90;;;;;;5021229;28;20036;-73
2023/04/26 10:21:09;;;;;;;6.65;1.60;;;9.00;72.20;;;;;;5042686;28;20059;-73
2023/04/26 10:23:36;;;;;;;6.85;1.90;;;9.10;72.00;;;;;;5038290;28;20619;-73
2023/04/26 10:26:02;;;;;;;7.55;1.63;;;9.20;70.20;;;;;;5023336;28;20494;-73
2023/04/26 10:28:42;;;;;;;8.10;1.80;;;9.30;70.60;;;;;;5041719;28;20041;-73
2023/04/26 10:31:09;;;;;;;6.25;1.77;;;9.40;68.70;;;;;;5048585;28;20075;-73
2023/04/26 10:33:35;;;;;;;11.32;1.67;;;9.30;67.00;;;;;;5041283;28;20048;-73
2023/04/26 10:36:13;;;;;;;9.67;2.37;;;9.20;68.30;;;;;;5036603;28;20092;-73
2023/04/26 10:38:41;;;;;;;12.65;2.95;;;8.80;70.40;;;;;;5038335;28;20131;-73
2023/04/26 10:41:32;;;;;;;15.55;3.35;;;8.50;74.70;;;;;;5021833;28;20132;-73
2023/04/26 10:44:00;;;;;;;6.13;2.60;;;8.20;81.50;;;;;;5027150;28;20421;-73
2023/04/26 10:46:35;;;;;;;4.43;2.28;;;7.80;85.00;;;;;;5029473;28;20503;-73
2023/04/26 10:49:15;;;;;;;7.05;2.28;;;7.40;89.70;;;;;;5024114;28;20068;-73
2023/04/26 10:52:09;;;;;;;5.50;1.92;;;6.90;94.30;;;;;;5021800;28;20041;-73
2023/04/26 10:54:48;;;;;;;4.93;1.90;;;6.60;96.00;;;;;;5026040;28;20053;-73
2023/04/26 10:57:14;;;;;;;4.70;2.20;;;6.30;98.40;;;;;;5031584;28;20037;-73
2023/04/26 11:00:00;;;;;;;7.80;2.38;;;6.10;99.90;;;;;;5044849;28;20118;-73
2023/04/26 11:02:44;;;;;;;;;;;5.90;99.90;;;;;;5047478;28;20045;-74
2023/04/26 11:05:10;;;;;;;6.65;2.38;;;5.80;99.90;;;;;;5037477;28;19928;-75
2023/04/26 11:07:36;;;;;;;5.30;2.70;;;5.90;99.90;;;;;;5034054;28;20565;-74
2023/04/26 11:10:03;;;;;;;7.00;2.95;;;6.10;99.90;;;;;;5049270;28;20045;-73
2023/04/26 11:12:29;;;;;;;5.60;2.70;;;6.30;99.90;;;;;;5023888;28;20040;-74
2023/04/26 11:14:58;;;;;;;8.17;2.93;;;6.60;99.90;;;;;;5025992;28;20045;-74
2023/04/26 11:17:24;;;;;;;7.68;2.30;;;6.90;99.90;;;;;;5043214;28;20052;-74
2023/04/26 11:19:50;;;;;;;11.50;3.00;;;7.30;99.90;;;;;;5027603;28;20045;-74
2023/04/26 11:22:15;;;;;;;10.17;2.87;;;7.60;99.90;;;;;;5030172;28;20052;-75
2023/04/26 11:24:42;;;;;;;7.40;2.17;;;8.00;99.90;;;;;;5042550;28;20163;-74
2023/04/26 11:27:09;;;;;;;4.75;2.17;;;8.40;99.90;;;;;;5043455;28;20056;-75
2023/04/26 11:29:35;;;;;;;7.15;1.58;;;8.70;98.10;;;;;;5039124;28;20059;-75
2023/04/26 11:32:01;;;;;;;5.53;1.70;;;9.00;89.80;;;;;;5025336;28;20045;-74
2023/04/26 11:34:31;;;;;;;6.65;1.60;;;9.10;79.00;;;;;;5047876;28;20090;-74
2023/04/26 11:36:56;;;;;;;7.45;1.33;;;9.30;78.20;;;;;;5030020;28;20166;-74
2023/04/26 11:39:22;;;;;;;5.53;1.50;;;9.40;75.40;;;;;;5023681;28;20548;-74
2023/04/26 11:41:48;;;;;;;4.37;1.50;;;9.50;70.70;;;;;;5041343;28;20295;-75
2023/04/26 11:44:20;;;;;;;3.33;0.80;;;9.40;67.50;;;;;;5024614;28;20393;-74
2023/04/26 11:46:47;;;;;;;9.50;2.03;;;9.40;61.00;;;;;;5048823;28;20040;-74
2023/04/26 11:49:15;;;;;;;4.80;1.40;;;9.30;63.90;;;;;;5028518;28;20109;-75
2023/04/26 11:51:41;;;;;;;2.63;1.30;;;9.40;63.80;;;;;;5044059;28;20075;-73
2023/04/26 11:54:07;;;;;;;2.85;1.20;;;9.60;64.40;;;;;;5027309;28;20041;-74
2023/04/26 11:56:33;;;;;;;4.47;1.40;;;9.70;64.90;;;;;;5029142;28;20034;-74
2023/04/26 11:58:59;;;;;;;7.10;1.40;;;9.90;62.40;;;;;;5025254;28;20041;-74
2023/04/26 12:01:26;;;;;;;5.10;1.17;;;10.00;61.00;;;;;;5043532;28;20472;-74
2023/04/26 12:03:57;;;;;;;4.45;1.20;;;10.20;61.60;;;;;;5027755;28;20067;-74
2023/04/26 12:06:32;;;;;;;5.45;0.95;;;10.20;54.80;;;;;;5049014;28;20041;-75
2023/04/26 12:09:02;;;;;;;3.80;0.73;;;10.00;54.90;;;;;;5046988;28;20090;-74
2023/04/26 12:11:27;;;;;;;4.72;1.10;;;9.80;54.90;;;;;;5033244;28;20053;-74
2023/04/26 12:13:56;;;;;;;7.00;1.57;;;9.80;55.80;;;;;;5030124;28;20492;-73
2023/04/26 12:16:22;;;;;;;3.95;1.08;;;9.90;57.70;;;;;;5018960;28;20349;-74
2023/04/26 12:18:51;;;;;;;4.43;1.00;;;10.00;54.20;;;;;;5026893;28;20045;-73
2023/04/26 12:21:18;;;;;;;4.50;1.20;;;10.00;55.20;;;;;;5045915;28;20529;-74
2023/04/26 12:23:46;;;;;;;6.10;1.58;;;10.20;59.70;;;;;;5044528;28;20290;-73
2023/04/26 12:26:12;;;;;;;5.53;1.40;;;10.40;61.40;;;;;;5042122;28;20072;-74
2023/04/26 12:28:38;;;;;;;7.60;1.30;;;10.60;60.30;;;;;;5024642;28;20064;-74
2023/04/26 12:31:05;;;;;;;3.85;1.27;;;10.80;56.30;;;;;;5036577;28;20047;-74
2023/04/26 12:33:31;;;;;;;3.40;1.03;;;11.00;58.80;;;;;;5038570;28;20594;-74
2023/04/26 12:36:07;;;;;;;4.00;1.17;;;11.20;55.60;;;;;;5045785;28;20276;-74
2023/04/26 12:38:33;;;;;;;4.73;0.90;;;11.40;53.50;;;;;;5026959;28;20051;-74
2023/04/26 12:41:00;;;;;;;7.20;1.10;;;11.50;55.00;;;;;;5047907;28;20291;-74
2023/04/26 12:43:25;;;;;;;5.97;1.37;;;11.50;52.10;;;;;;5033353;28;20489;-74
2023/04/26 12:45:51;;;;;;;4.50;1.07;;;11.50;54.80;;;;;;5045986;28;20610;-75
2023/04/26 12:48:17;;;;;;;4.83;1.50;;;11.40;52.90;;;;;;5026955;28;20053;-74
2023/04/26 12:50:43;;;;;;;6.27;1.40;;;11.10;54.40;;;;;;5031466;28;20029;-74
2023/04/26 12:53:09;;;;;;;8.57;1.57;;;10.70;56.20;;;;;;5034692;28;20063;-73
2023/04/26 12:55:36;;;;;;;8.97;1.40;;;10.40;58.00;;;;;;5035045;28;20041;-74
2023/04/26 12:58:02;;;;;;;4.23;1.33;;;10.10;59.50;;;;;;5053570;28;20869;-74